Time;durP1;ratioP1;P1;durP2;ratioP2;P2;SDS_P1;SDS_P2;PMS_P1;PMS_P2;Temp;Humidity;BMP_temperature;BMP_pressure;BME280_temperature;BME280_humidity;BME280_pressure;Samples;Min_cycle;Max_cycle;Signal;HPM_P1;HPM_P2
2023/05/07 00:02:40;;;;;;;3.78;2.35;;;;;;;8.57;77.42;101764.34;15550366;28;20054;-54
2023/05/07 00:10:14;;;;;;;3.65;1.88;;;;;;;8.72;76.50;101767.16;15530331;28;20415;-56
2023/05/07 00:17:48;;;;;;;2.67;2.15;;;;;;;8.77;75.54;101760.28;15532640;28;20510;-52
2023/05/07 00:25:22;;;;;;;1.83;1.02;;;;;;;8.72;75.97;101764.47;15516527;28;20057;-55
2023/05/07 00:32:55;;;;;;;4.28;2.53;;;;;;;8.75;75.57;101761.47;15549252;28;20053;-55
2023/05/07 00:40:29;;;;;;;1.83;1.07;;;;;;;8.75;76.28;101759.59;15548001;28;20058;-56
2023/05/07 00:48:04;;;;;;;4.80;2.38;;;;;;;8.64;76.46;101757.31;15548046;28;20134;-53
2023/05/07 00:55:38;;;;;;;3.05;1.80;;;;;;;8.65;76.75;101764.34;15527912;28;20516;-54
2023/05/07 01:03:11;;;;;;;4.05;2.00;;;;;;;9.05;75.01;101760.66;15529123;28;20471;-54
2023/05/07 01:10:46;;;;;;;4.73;3.10;;;;;;;8.91;75.08;101754.19;15514542;28;20074;-54
2023/05/07 01:18:19;;;;;;;5.15;1.45;;;;;;;8.83;75.34;101764.09;15524687;28;20137;-57
2023/05/07 01:25:54;;;;;;;3.92;1.77;;;;;;;9.07;74.17;101752.44;15539474;28;20038;-54
2023/05/07 01:33:32;;;;;;;2.15;1.23;;;;;;;9.00;73.74;101746.97;15525288;28;20065;-54
2023/05/07 01:41:12;;;;;;;2.83;1.75;;;;;;;8.88;73.94;101749.19;15559777;28;20064;-53
2023/05/07 01:48:46;;;;;;;3.50;1.73;;;;;;;8.87;74.16;101747.53;15524795;28;20686;-54
2023/05/07 01:56:20;;;;;;;1.80;1.35;;;;;;;8.66;75.29;101752.63;15539808;28;20375;-55
2023/05/07 02:03:54;;;;;;;5.00;1.55;;;;;;;8.72;74.28;101767.16;15556984;28;20042;-54
2023/05/07 02:11:32;;;;;;;3.10;1.83;;;;;;;9.15;72.89;101769.31;15538721;28;20046;-56
2023/05/07 02:19:06;;;;;;;1.67;1.17;;;;;;;8.68;75.06;101774.72;15519427;28;20137;-55
2023/05/07 02:26:41;;;;;;;;;;;;;;;8.87;74.03;101773.47;15555399;28;20041;-53
2023/05/07 02:34:14;;;;;;;2.55;1.48;;;;;;;8.72;74.43;101783.19;15535215;28;20008;-57
2023/05/07 02:41:49;;;;;;;2.70;1.67;;;;;;;8.54;73.52;101764.72;15556620;28;20434;-54
2023/05/07 02:49:22;;;;;;;2.78;2.15;;;;;;;8.59;72.68;101787.28;15554824;28;20049;-56
2023/05/07 02:56:56;;;;;;;2.33;1.23;;;;;;;8.79;72.49;101792.22;15554514;28;20052;-53
2023/05/07 03:04:29;;;;;;;2.90;1.50;;;;;;;8.59;74.00;101797.97;15520631;28;20258;-58
2023/05/07 03:12:04;;;;;;;5.72;1.85;;;;;;;8.84;73.48;101796.06;15537579;28;20451;-55
2023/05/07 03:19:37;;;;;;;2.13;1.00;;;;;;;8.99;72.81;101806.03;15536220;28;20128;-56
2023/05/07 03:27:12;;;;;;;2.47;1.73;;;;;;;8.93;71.68;101807.56;15519088;28;20157;-52
2023/05/07 03:34:45;;;;;;;6.55;2.40;;;;;;;8.55;72.73;101802.00;15514783;28;20107;-55
2023/05/07 03:42:21;;;;;;;3.58;1.00;;;;;;;8.65;72.63;101817.88;15513679;28;20137;-55
2023/05/07 03:49:56;;;;;;;1.63;0.55;;;;;;;8.86;72.08;101826.19;15519029;28;20045;-55
2023/05/07 03:57:33;;;;;;;2.90;1.50;;;;;;;8.63;72.95;101820.72;15534666;28;20088;-54
2023/05/07 04:05:06;;;;;;;2.63;1.02;;;;;;;8.67;72.78;101819.38;15534209;28;20038;-54
2023/05/07 04:12:42;;;;;;;6.97;1.60;;;;;;;8.86;71.95;101822.63;15551101;28;20042;-54
2023/05/07 04:20:18;;;;;;;8.80;2.65;;;;;;;8.64;72.43;101833.09;15551286;28;20038;-51
2023/05/07 04:27:56;;;;;;;7.85;2.60;;;;;;;8.89;71.94;101836.53;15533290;28;20068;-55
2023/05/07 04:35:33;;;;;;;1.33;1.08;;;;;;;8.77;71.78;101845.13;15549774;28;20038;-52
2023/05/07 04:43:08;;;;;;;1.02;0.93;;;;;;;8.54;72.58;101850.34;15549281;28;20045;-52
2023/05/07 04:50:49;;;;;;;2.63;1.30;;;;;;;8.81;71.26;101862.47;15534114;28;20038;-50
2023/05/07 04:58:24;;;;;;;5.60;1.77;;;;;;;8.76;71.26;101871.03;15541739;28;20416;-51
2023/05/07 05:05:59;;;;;;;1.90;1.00;;;;;;;8.59;71.11;101880.09;15544495;28;20048;-49
2023/05/07 05:13:34;;;;;;;2.20;0.73;;;;;;;8.82;70.38;101877.56;15543965;28;20659;-53
2023/05/07 05:21:11;;;;;;;2.60;0.85;;;;;;;8.65;71.30;101877.56;15557357;28;20038;-54
2023/05/07 05:28:47;;;;;;;1.52;0.77;;;;;;;8.89;70.53;101874.00;15544037;28;20510;-50
2023/05/07 05:36:20;;;;;;;2.83;1.38;;;;;;;8.56;71.66;101878.59;15543149;28;20129;-50
2023/05/07 05:43:56;;;;;;;2.28;1.45;;;;;;;8.61;70.81;101878.09;15542617;28;20081;-53
2023/05/07 05:51:29;;;;;;;1.08;0.98;;;;;;;8.60;70.53;101887.13;15542567;28;20388;-53
2023/05/07 05:59:03;;;;;;;0.80;0.80;;;;;;;8.99;69.24;101900.59;15558153;28;20111;-50
2023/05/07 06:06:36;;;;;;;1.20;1.00;;;;;;;9.28;69.32;101899.16;15539291;28;20061;-53
2023/05/07 06:14:11;;;;;;;2.38;1.17;;;;;;;9.51;68.76;101905.44;15537999;28;20099;-53
2023/05/07 06:21:49;;;;;;;2.35;1.38;;;;;;;9.56;67.92;101904.91;15556949;28;20500;-50
2023/05/07 06:29:32;;;;;;;2.03;1.85;;;;;;;9.71;67.04;101904.00;15556845;28;20065;-50
2023/05/07 06:37:06;;;;;;;5.10;1.83;;;;;;;9.60;66.98;101915.09;15521041;28;20050;-50
2023/05/07 06:44:58;;;;;;;2.33;1.42;;;;;;;10.08;65.96;101921.22;15523735;28;20054;-54
2023/05/07 06:52:32;;;;;;;2.60;1.23;;;;;;;10.34;65.32;101920.03;15538725;28;20113;-53
2023/05/07 07:00:08;;;;;;;1.13;0.55;;;;;;;10.48;64.07;101924.63;15537292;28;20050;-53
2023/05/07 07:07:52;;;;;;;1.27;0.65;;;;;;;10.25;65.50;101915.75;15533718;28;20062;-53
2023/05/07 07:15:27;;;;;;;1.33;0.70;;;;;;;11.26;64.00;101917.97;15533704;28;20068;-51
2023/05/07 07:23:02;;;;;;;7.72;0.95;;;;;;;10.72;64.70;101937.88;15548248;28;20037;-50
2023/05/07 07:30:36;;;;;;;6.67;1.27;;;;;;;10.76;65.74;101935.63;15534155;28;20042;-49
2023/05/07 07:38:09;;;;;;;2.00;0.98;;;;;;;10.70;64.71;101931.81;15519743;28;20109;-51
2023/05/07 07:45:43;;;;;;;;;;;;;;;10.82;64.00;101934.06;15552967;28;20038;-51
2023/05/07 07:53:17;;;;;;;1.10;0.60;;;;;;;10.99;63.01;101932.88;15551083;28;19928;-57
2023/05/07 08:00:51;;;;;;;1.73;0.88;;;;;;;12.23;58.51;101942.78;15550477;28;20445;-53
2023/05/07 08:08:25;;;;;;;2.38;1.13;;;;;;;11.17;61.43;101945.97;15518473;28;20049;-50
2023/05/07 08:16:02;;;;;;;0.88;0.65;;;;;;;11.31;61.52;101947.81;15518799;28;20145;-51
2023/05/07 08:23:35;;;;;;;0.60;0.40;;;;;;;11.69;60.65;101942.31;15529337;28;20046;-52
2023/05/07 08:31:09;;;;;;;1.57;0.63;;;;;;;13.03;57.52;101940.75;15505775;28;20430;-51
2023/05/07 08:38:45;;;;;;;0.65;0.50;;;;;;;12.95;57.24;101940.88;15517196;28;20068;-53
2023/05/07 08:46:22;;;;;;;0.32;0.32;;;;;;;13.25;56.08;101934.28;15530450;28;20069;-50
2023/05/07 08:54:00;;;;;;;0.50;0.45;;;;;;;12.89;56.85;101925.50;15517044;28;20105;-51
2023/05/07 09:01:39;;;;;;;0.57;0.20;;;;;;;13.26;55.80;101930.56;15532031;28;20089;-55
2023/05/07 09:09:15;;;;;;;1.40;0.70;;;;;;;13.74;55.70;101932.44;15533223;28;20084;-51
2023/05/07 09:16:50;;;;;;;0.88;0.45;;;;;;;12.82;57.64;101947.00;15534789;28;20092;-52
2023/05/07 09:24:22;;;;;;;0.82;0.52;;;;;;;13.06;56.74;101943.06;15550385;28;20129;-55
2023/05/07 09:31:57;;;;;;;0.60;0.45;;;;;;;13.91;54.25;101938.31;15546878;28;20053;-51
2023/05/07 09:39:40;;;;;;;0.40;0.38;;;;;;;14.96;52.38;101951.13;15555174;28;20452;-53
2023/05/07 09:47:19;;;;;;;2.55;0.80;;;;;;;14.87;50.74;101957.78;15522217;28;20056;-52
2023/05/07 09:54:59;;;;;;;0.43;0.35;;;;;;;14.88;51.00;101951.34;15537727;28;20088;-55
2023/05/07 10:02:37;;;;;;;0.30;0.30;;;;;;;14.41;52.45;101961.28;15537706;28;20046;-54
2023/05/07 10:10:11;;;;;;;0.38;0.22;;;;;;;14.16;52.92;101952.06;15537941;28;20064;-52
2023/05/07 10:17:50;;;;;;;0.57;0.50;;;;;;;13.86;54.20;101965.91;15553797;28;20053;-50
2023/05/07 10:25:30;;;;;;;0.20;0.20;;;;;;;14.09;52.05;101970.97;15554664;28;20057;-50
2023/05/07 10:33:11;;;;;;;0.47;0.30;;;;;;;14.60;50.06;101965.06;15522940;28;20066;-52
2023/05/07 10:40:48;;;;;;;0.90;0.65;;;;;;;14.90;49.09;101964.66;15524784;28;20142;-54
2023/05/07 10:48:24;;;;;;;3.83;0.52;;;;;;;14.38;51.59;101974.38;15556427;28;20041;-52
2023/05/07 10:56:27;;;;;;;0.30;0.28;;;;;;;14.41;49.68;101963.13;15522244;28;20092;-55
2023/05/07 11:04:17;;;;;;;0.63;0.35;;;;;;;14.54;50.20;101958.59;15485380;28;20073;-54
2023/05/07 11:12:01;;;;;;;1.08;0.40;;;;;;;15.56;47.37;101959.94;15522150;28;20104;-55
2023/05/07 11:19:54;;;;;;;0.80;0.45;;;;;;;16.98;45.68;101955.16;15537575;28;20056;-58
2023/05/07 11:27:43;;;;;;;1.35;0.55;;;;;;;16.30;46.12;101941.47;15517788;28;20034;-52
2023/05/07 11:35:23;;;;;;;0.47;0.32;;;;;;;16.88;45.64;101935.84;15534773;28;20514;-54
2023/05/07 11:42:56;;;;;;;1.02;0.35;;;;;;;16.70;47.40;101942.00;15536116;28;20038;-52
2023/05/07 11:50:30;;;;;;;0.68;0.50;;;;;;;17.21;42.71;101934.69;15532850;28;20052;-52
2023/05/07 11:58:03;;;;;;;0.35;0.28;;;;;;;17.48;43.40;101929.75;15552859;28;20487;-53
2023/05/07 12:05:41;;;;;;;0.13;0.13;;;;;;;16.74;43.57;101931.56;15551860;28;20542;-54
2023/05/07 12:13:18;;;;;;;1.02;0.20;;;;;;;17.37;42.95;101934.06;15515359;28;20541;-55
2023/05/07 12:20:53;;;;;;;0.28;0.22;;;;;;;17.46;42.62;101937.31;15533902;28;20406;-53
2023/05/07 12:28:26;;;;;;;0.57;0.57;;;;;;;17.09;40.95;101948.97;15533436;28;20030;-51
2023/05/07 12:36:04;;;;;;;0.82;0.30;;;;;;;17.12;42.46;101945.00;15550110;28;20430;-51
2023/05/07 12:43:38;;;;;;;1.48;0.40;;;;;;;16.78;42.75;101941.75;15548949;28;20050;-53
2023/05/07 12:51:13;;;;;;;0.88;0.60;;;;;;;17.91;40.59;101942.44;15529251;28;20053;-54
2023/05/07 12:58:45;;;;;;;1.48;0.65;;;;;;;17.62;42.43;101952.97;15532880;28;20136;-54
2023/05/07 13:06:19;;;;;;;0.50;0.32;;;;;;;17.05;42.73;101942.34;15532908;28;20368;-55
2023/05/07 13:13:52;;;;;;;1.05;0.73;;;;;;;16.58;42.83;101952.72;15555618;28;20112;-56
2023/05/07 13:21:26;;;;;;;0.93;0.77;;;;;;;16.25;43.29;101950.25;15561730;28;20045;-50
2023/05/07 13:28:59;;;;;;;0.70;0.40;;;;;;;16.59;44.20;101951.66;15542464;28;20197;-52
2023/05/07 13:36:36;;;;;;;0.40;0.17;;;;;;;16.25;43.69;101954.84;15559214;28;20058;-52
2023/05/07 13:44:09;;;;;;;1.02;0.30;;;;;;;16.10;42.89;101940.78;15559938;28;20113;-55
2023/05/07 13:51:46;;;;;;;0.50;0.47;;;;;;;15.99;44.67;101950.41;15558984;28;20369;-55
2023/05/07 13:59:18;;;;;;;0.75;0.47;;;;;;;16.42;43.75;101955.16;15539194;28;20061;-56
2023/05/07 14:06:53;;;;;;;0.45;0.35;;;;;;;16.14;44.74;101947.44;15536780;28;20053;-56
2023/05/07 14:14:25;;;;;;;0.40;0.38;;;;;;;15.89;44.15;101936.50;15540101;28;20045;-51
2023/05/07 14:21:59;;;;;;;1.48;0.85;;;;;;;15.72;43.71;101930.78;15556567;28;20050;-54
2023/05/07 14:29:32;;;;;;;1.02;0.60;;;;;;;15.68;44.83;101930.38;15557376;28;20077;-51
2023/05/07 14:37:06;;;;;;;0.73;0.40;;;;;;;15.36;45.31;101925.88;15556793;28;20383;-53
2023/05/07 14:44:40;;;;;;;1.08;0.50;;;;;;;15.77;46.65;101926.38;15538853;28;20462;-51
2023/05/07 14:52:14;;;;;;;0.63;0.57;;;;;;;15.52;44.94;101938.91;15539135;28;20649;-55
2023/05/07 14:59:47;;;;;;;0.15;0.15;;;;;;;15.49;43.00;101942.06;15556663;28;20041;-51
2023/05/07 15:07:21;;;;;;;0.47;0.35;;;;;;;15.57;45.15;101941.81;15538747;28;20120;-55
2023/05/07 15:14:54;;;;;;;1.25;0.52;;;;;;;15.52;45.65;101945.16;15536715;28;20042;-52
2023/05/07 15:22:28;;;;;;;0.67;0.57;;;;;;;15.62;45.38;101943.88;15537893;28;20053;-53
2023/05/07 15:30:01;;;;;;;0.85;0.50;;;;;;;15.38;46.44;101950.84;15552396;28;20124;-54
2023/05/07 15:37:35;;;;;;;0.30;0.30;;;;;;;14.94;46.74;101950.50;15536388;28;20065;-51
2023/05/07 15:45:10;;;;;;;0.10;0.10;;;;;;;14.93;46.42;101965.06;15553688;28;20045;-51
2023/05/07 15:52:46;;;;;;;0.35;0.22;;;;;;;14.84;48.54;101963.63;15535443;28;20422;-50
2023/05/07 16:00:19;;;;;;;0.50;0.40;;;;;;;14.99;47.91;101950.72;15536117;28;20054;-55
2023/05/07 16:07:56;;;;;;;1.20;0.40;;;;;;;14.67;46.57;101954.25;15536086;28;20141;-50
2023/05/07 16:15:29;;;;;;;0.38;0.25;;;;;;;14.51;47.29;101958.22;15552243;28;20053;-54
2023/05/07 16:23:03;;;;;;;0.53;0.37;;;;;;;14.46;48.02;101963.38;15533661;28;20054;-52
2023/05/07 16:30:36;;;;;;;1.30;0.73;;;;;;;14.39;47.72;101966.03;15534470;28;20491;-55
2023/05/07 16:38:10;;;;;;;0.10;0.10;;;;;;;14.08;48.63;101969.28;15518368;23;20542;-71
2023/05/07 16:45:43;;;;;;;0.63;0.20;;;;;;;13.84;48.94;101969.84;15483594;28;20042;-71
2023/05/07 16:53:17;;;;;;;0.30;0.30;;;;;;;14.21;48.60;101974.72;15496748;23;20133;-54
2023/05/07 17:00:50;;;;;;;0.40;0.40;;;;;;;14.27;48.56;101976.63;15490820;28;20046;-51
2023/05/07 17:08:24;;;;;;;0.10;0.10;;;;;;;13.90;47.97;101977.97;15489288;28;20078;-59
2023/05/07 17:15:57;;;;;;;0.50;0.30;;;;;;;13.97;48.67;101976.13;15488956;28;20046;-53
2023/05/07 17:23:31;;;;;;;0.30;0.30;;;;;;;13.56;48.95;101989.63;15484996;28;20128;-55
2023/05/07 17:31:03;;;;;;;0.43;0.30;;;;;;;13.59;49.37;101996.50;15488898;28;20050;-50
2023/05/07 17:38:37;;;;;;;0.57;0.20;;;;;;;13.28;48.68;102014.78;15489820;28;20043;-50
2023/05/07 17:46:10;;;;;;;0.30;0.20;;;;;;;12.98;48.35;102006.03;15471965;28;20080;-54
2023/05/07 17:53:44;;;;;;;0.40;0.17;;;;;;;12.76;49.59;102017.84;15473951;28;20091;-51
2023/05/07 18:01:17;;;;;;;0.77;0.40;;;;;;;12.74;49.81;102018.06;15492508;28;20078;-51
2023/05/07 18:08:53;;;;;;;0.10;0.10;;;;;;;12.69;50.41;102027.75;15497715;28;20038;-53
2023/05/07 18:16:26;;;;;;;0.20;0.03;;;;;;;12.65;50.76;102037.22;15483233;28;20051;-50
2023/05/07 18:24:00;;;;;;;0.03;0.00;;;;;;;12.42;51.84;102037.41;15497906;28;20105;-53
2023/05/07 18:31:33;;;;;;;0.20;0.20;;;;;;;12.85;50.87;102050.88;15496850;28;20047;-51
2023/05/07 18:39:08;;;;;;;;;;;;;;;12.61;51.76;102055.63;15495826;28;20038;-53
2023/05/07 18:46:42;;;;;;;5.72;2.10;;;;;;;12.73;51.21;102072.13;15493819;28;19926;-51
2023/05/07 18:54:17;;;;;;;1.40;0.15;;;;;;;12.11;52.88;102078.84;15493519;28;20093;-53
2023/05/07 19:01:49;;;;;;;0.28;0.20;;;;;;;12.16;52.88;102079.13;15494858;28;20392;-50
2023/05/07 19:09:23;;;;;;;0.77;0.77;;;;;;;12.07;53.27;102085.63;15494115;28;20408;-49
2023/05/07 19:16:57;;;;;;;0.20;0.20;;;;;;;12.20;53.35;102093.88;15494989;28;20050;-53
2023/05/07 19:24:33;;;;;;;0.83;0.60;;;;;;;11.72;54.80;102103.34;15494159;28;20053;-50
2023/05/07 19:32:06;;;;;;;0.30;0.30;;;;;;;11.45;56.15;102116.38;15488016;28;20046;-51
2023/05/07 19:39:40;;;;;;;0.73;0.27;;;;;;;10.82;57.88;102130.13;15497735;28;20046;-56
2023/05/07 19:47:13;;;;;;;0.60;0.45;;;;;;;10.82;58.39;102128.31;15492405;28;20072;-53
2023/05/07 19:54:47;;;;;;;1.47;0.73;;;;;;;10.45;59.42;102127.16;15492671;28;20080;-51
2023/05/07 20:02:20;;;;;;;0.57;0.32;;;;;;;10.13;60.60;102148.72;15491991;28;20046;-50
2023/05/07 20:09:54;;;;;;;0.80;0.43;;;;;;;10.21;60.05;102152.22;15471880;28;20088;-51
2023/05/07 20:17:27;;;;;;;4.63;0.93;;;;;;;10.30;59.95;102163.78;15472090;28;20050;-50
2023/05/07 20:25:04;;;;;;;0.83;0.70;;;;;;;10.09;60.57;102176.91;15464881;28;20050;-50
2023/05/07 20:32:37;;;;;;;0.52;0.52;;;;;;;9.65;61.66;102179.97;15477555;28;20057;-51
2023/05/07 20:40:13;;;;;;;1.60;0.70;;;;;;;9.60;61.15;102180.50;15471639;28;20141;-52
2023/05/07 20:47:45;;;;;;;0.98;0.57;;;;;;;9.73;60.20;102179.16;15458632;28;20116;-54
2023/05/07 20:55:20;;;;;;;1.20;0.87;;;;;;;9.66;60.15;102187.88;15468448;28;20097;-51
2023/05/07 21:02:52;;;;;;;1.00;0.25;;;;;;;9.82;59.73;102180.81;15494490;28;20082;-51
2023/05/07 21:10:27;;;;;;;1.23;0.93;;;;;;;9.49;60.58;102186.19;15491484;28;20034;-50
2023/05/07 21:17:59;;;;;;;0.45;0.22;;;;;;;9.66;60.42;102187.03;15471377;28;20105;-50
2023/05/07 21:25:37;;;;;;;1.90;0.60;;;;;;;9.31;61.16;102182.84;15484483;28;20092;-53
2023/05/07 21:33:10;;;;;;;0.47;0.35;;;;;;;9.40;60.74;102201.44;15481144;28;20047;-50
2023/05/07 21:40:44;;;;;;;0.40;0.40;;;;;;;9.27;61.05;102195.72;15499535;28;20049;-49
2023/05/07 21:48:20;;;;;;;1.00;0.60;;;;;;;9.22;61.26;102214.13;15497043;28;20046;-50
2023/05/07 21:55:55;;;;;;;1.50;0.68;;;;;;;9.17;61.49;102222.66;15495916;28;20141;-53
2023/05/07 22:03:27;;;;;;;1.05;0.60;;;;;;;9.42;60.94;102218.19;15493734;28;20047;-53
2023/05/07 22:11:02;;;;;;;0.10;0.10;;;;;;;9.49;60.90;102223.72;15491069;28;20042;-50
2023/05/07 22:18:35;;;;;;;0.50;0.50;;;;;;;9.11;62.10;102222.50;15491409;28;20058;-50
2023/05/07 22:26:13;;;;;;;6.07;0.80;;;;;;;8.58;64.13;102223.66;15477463;28;20054;-50
2023/05/07 22:33:46;;;;;;;1.20;0.63;;;;;;;8.98;62.18;102231.00;15493737;28;20038;-52
2023/05/07 22:41:20;;;;;;;1.15;0.80;;;;;;;8.58;63.70;102226.31;15478791;28;20066;-51
2023/05/07 22:48:53;;;;;;;0.50;0.50;;;;;;;8.37;64.48;102238.28;15482267;28;20050;-51
2023/05/07 22:56:27;;;;;;;1.10;1.00;;;;;;;8.35;64.62;102242.09;15494348;28;20042;-50
2023/05/07 23:03:59;;;;;;;1.02;0.93;;;;;;;8.18;65.08;102227.78;15488391;23;20054;-50
2023/05/07 23:11:33;;;;;;;0.77;0.50;;;;;;;8.27;64.56;102231.34;15491188;28;20044;-53
2023/05/07 23:19:06;;;;;;;0.45;0.45;;;;;;;8.09;65.07;102193.94;15487076;28;20042;-53
2023/05/07 23:26:40;;;;;;;0.35;0.17;;;;;;;7.67;67.16;102218.72;15492583;28;20042;-50
2023/05/07 23:34:58;;;;;;;0.50;0.50;;;;;;;7.69;66.82;102222.06;15483212;28;20157;-50
2023/05/07 23:42:35;;;;;;;0.55;0.50;;;;;;;8.05;65.74;102228.19;15434636;28;20050;-54
2023/05/07 23:50:08;;;;;;;1.10;0.88;;;;;;;7.74;65.71;102189.53;15501214;28;20681;-52
2023/05/07 23:57:42;;;;;;;1.30;0.82;;;;;;;7.64;66.48;102211.84;15489720;28;20116;-50
